sensor_id;sensor_type;location;lat;lon;timestamp;pressure;altitude;pressure_sealevel;temperature;humidity
13235;BME280;6683;48.506;9.050;2022-10-22T00:02:43;97919.09;;;16.63;75.96
13235;BME280;6683;48.506;9.050;2022-10-22T00:05:47;97907.84;;;16.61;76.03
13235;BME280;6683;48.506;9.050;2022-10-22T00:08:49;97914.25;;;16.60;75.85
13235;BME280;6683;48.506;9.050;2022-10-22T00:11:52;97914.44;;;16.58;75.65
13235;BME280;6683;48.506;9.050;2022-10-22T00:14:56;97921.88;;;16.56;75.74
13235;BME280;6683;48.506;9.050;2022-10-22T00:17:58;97919.09;;;16.51;75.56
13235;BME280;6683;48.506;9.050;2022-10-22T00:21:01;97919.53;;;16.48;75.76
13235;BME280;6683;48.506;9.050;2022-10-22T00:24:04;97914.66;;;16.45;75.69
13235;BME280;6683;48.506;9.050;2022-10-22T00:27:09;97923.09;;;16.42;75.55
13235;BME280;6683;48.506;9.050;2022-10-22T00:30:14;97912.69;;;16.41;75.79
13235;BME280;6683;48.506;9.050;2022-10-22T00:33:16;97905.72;;;16.40;75.69
13235;BME280;6683;48.506;9.050;2022-10-22T00:36:19;97896.13;;;16.39;75.79
13235;BME280;6683;48.506;9.050;2022-10-22T00:39:23;97892.06;;;16.36;75.86
13235;BME280;6683;48.506;9.050;2022-10-22T00:42:27;97889.41;;;16.36;75.79
13235;BME280;6683;48.506;9.050;2022-10-22T00:45:31;97884.31;;;16.35;75.61
13235;BME280;6683;48.506;9.050;2022-10-22T00:48:34;97888.25;;;16.32;75.58
13235;BME280;6683;48.506;9.050;2022-10-22T00:51:36;97899.56;;;16.28;75.51
13235;BME280;6683;48.506;9.050;2022-10-22T00:54:40;97910.72;;;16.25;75.66
13235;BME280;6683;48.506;9.050;2022-10-22T00:57:43;97926.09;;;16.23;75.66
13235;BME280;6683;48.506;9.050;2022-10-22T01:00:48;97923.88;;;16.20;75.75
13235;BME280;6683;48.506;9.050;2022-10-22T01:03:51;97938.25;;;16.19;75.92
13235;BME280;6683;48.506;9.050;2022-10-22T01:06:54;97941.50;;;16.21;76.16
13235;BME280;6683;48.506;9.050;2022-10-22T01:10:04;97946.00;;;16.20;76.01
13235;BME280;6683;48.506;9.050;2022-10-22T01:13:24;97947.84;;;16.20;76.16
13235;BME280;6683;48.506;9.050;2022-10-22T01:16:46;97937.44;;;16.18;76.17
13235;BME280;6683;48.506;9.050;2022-10-22T01:20:01;97930.47;;;16.17;76.38
13235;BME280;6683;48.506;9.050;2022-10-22T01:23:23;97949.09;;;16.17;76.23
13235;BME280;6683;48.506;9.050;2022-10-22T01:26:41;97950.16;;;16.16;76.12
13235;BME280;6683;48.506;9.050;2022-10-22T01:29:54;97945.03;;;16.15;76.14
13235;BME280;6683;48.506;9.050;2022-10-22T01:33:02;97934.63;;;16.13;76.06
13235;BME280;6683;48.506;9.050;2022-10-22T01:36:07;97930.34;;;16.12;76.17
13235;BME280;6683;48.506;9.050;2022-10-22T01:39:11;97918.53;;;16.08;75.85
13235;BME280;6683;48.506;9.050;2022-10-22T01:42:15;97919.56;;;16.07;76.17
13235;BME280;6683;48.506;9.050;2022-10-22T01:45:19;97901.41;;;16.04;76.04
13235;BME280;6683;48.506;9.050;2022-10-22T01:48:34;97884.22;;;16.00;76.17
13235;BME280;6683;48.506;9.050;2022-10-22T01:51:51;97865.59;;;16.00;76.29
13235;BME280;6683;48.506;9.050;2022-10-22T01:55:05;97846.38;;;15.98;76.35
13235;BME280;6683;48.506;9.050;2022-10-22T01:58:21;97850.34;;;15.95;76.19
13235;BME280;6683;48.506;9.050;2022-10-22T02:01:38;97871.06;;;15.93;75.98
13235;BME280;6683;48.506;9.050;2022-10-22T02:04:47;97870.66;;;15.90;75.89
13235;BME280;6683;48.506;9.050;2022-10-22T02:07:54;97875.41;;;15.88;76.10
13235;BME280;6683;48.506;9.050;2022-10-22T02:10:59;97868.47;;;15.87;75.91
13235;BME280;6683;48.506;9.050;2022-10-22T02:14:03;97881.22;;;15.85;76.15
13235;BME280;6683;48.506;9.050;2022-10-22T02:17:10;97915.44;;;15.81;76.04
13235;BME280;6683;48.506;9.050;2022-10-22T02:20:18;97919.38;;;15.79;76.07
13235;BME280;6683;48.506;9.050;2022-10-22T02:23:23;97908.94;;;15.77;76.19
13235;BME280;6683;48.506;9.050;2022-10-22T02:26:31;97911.00;;;15.75;76.09
13235;BME280;6683;48.506;9.050;2022-10-22T02:29:37;97936.22;;;15.73;76.09
13235;BME280;6683;48.506;9.050;2022-10-22T02:32:46;97922.13;;;15.72;76.27
13235;BME280;6683;48.506;9.050;2022-10-22T02:35:51;97935.19;;;15.74;76.12
13235;BME280;6683;48.506;9.050;2022-10-22T02:38:55;97931.94;;;15.72;76.27
13235;BME280;6683;48.506;9.050;2022-10-22T02:41:57;97938.69;;;15.74;76.48
13235;BME280;6683;48.506;9.050;2022-10-22T02:45:02;97939.94;;;15.72;76.29
13235;BME280;6683;48.506;9.050;2022-10-22T02:48:07;97947.34;;;15.70;76.35
13235;BME280;6683;48.506;9.050;2022-10-22T02:51:09;97960.63;;;15.70;76.41
13235;BME280;6683;48.506;9.050;2022-10-22T02:54:12;97966.78;;;15.70;76.39
13235;BME280;6683;48.506;9.050;2022-10-22T02:57:14;97968.63;;;15.70;76.48
13235;BME280;6683;48.506;9.050;2022-10-22T03:00:17;97959.81;;;15.69;76.48
13235;BME280;6683;48.506;9.050;2022-10-22T03:03:21;97956.34;;;15.69;76.53
13235;BME280;6683;48.506;9.050;2022-10-22T03:06:23;97951.84;;;15.69;76.37
13235;BME280;6683;48.506;9.050;2022-10-22T03:09:26;97951.84;;;15.69;76.56
13235;BME280;6683;48.506;9.050;2022-10-22T03:12:28;97944.66;;;15.70;76.65
13235;BME280;6683;48.506;9.050;2022-10-22T03:15:30;97932.97;;;15.71;76.60
13235;BME280;6683;48.506;9.050;2022-10-22T03:18:34;97909.84;;;15.71;76.53
13235;BME280;6683;48.506;9.050;2022-10-22T03:21:40;97906.38;;;15.71;76.67
13235;BME280;6683;48.506;9.050;2022-10-22T03:24:46;97906.94;;;15.73;76.45
13235;BME280;6683;48.506;9.050;2022-10-22T03:27:50;97894.25;;;15.75;76.56
13235;BME280;6683;48.506;9.050;2022-10-22T03:30:53;97885.22;;;15.76;76.51
13235;BME280;6683;48.506;9.050;2022-10-22T03:33:57;97886.28;;;15.75;76.34
13235;BME280;6683;48.506;9.050;2022-10-22T03:37:00;97896.91;;;15.75;76.32
13235;BME280;6683;48.506;9.050;2022-10-22T03:40:07;97884.63;;;15.74;76.46
13235;BME280;6683;48.506;9.050;2022-10-22T03:43:11;97876.66;;;15.74;76.30
13235;BME280;6683;48.506;9.050;2022-10-22T03:46:14;97889.97;;;15.74;76.30
13235;BME280;6683;48.506;9.050;2022-10-22T03:49:18;97892.03;;;15.72;76.14
13235;BME280;6683;48.506;9.050;2022-10-22T03:52:20;97903.69;;;15.71;76.33
13235;BME280;6683;48.506;9.050;2022-10-22T03:55:23;97905.78;;;15.69;76.20
13235;BME280;6683;48.506;9.050;2022-10-22T03:58:25;97901.50;;;15.68;76.28
13235;BME280;6683;48.506;9.050;2022-10-22T04:01:29;97902.75;;;15.65;76.18
13235;BME280;6683;48.506;9.050;2022-10-22T04:04:33;97899.53;;;15.63;76.21
13235;BME280;6683;48.506;9.050;2022-10-22T04:07:36;97903.22;;;15.62;76.26
13235;BME280;6683;48.506;9.050;2022-10-22T04:10:38;97913.28;;;15.60;76.22
13235;BME280;6683;48.506;9.050;2022-10-22T04:13:41;97909.81;;;15.60;76.33
13235;BME280;6683;48.506;9.050;2022-10-22T04:16:43;97908.16;;;15.59;76.24
13235;BME280;6683;48.506;9.050;2022-10-22T04:19:47;97905.75;;;15.57;76.13
13235;BME280;6683;48.506;9.050;2022-10-22T04:22:49;97921.94;;;15.56;76.14
13235;BME280;6683;48.506;9.050;2022-10-22T04:25:57;97919.72;;;15.53;76.26
13235;BME280;6683;48.506;9.050;2022-10-22T04:28:59;97911.97;;;15.51;75.93
13235;BME280;6683;48.506;9.050;2022-10-22T04:32:01;97928.16;;;15.50;75.87
13235;BME280;6683;48.506;9.050;2022-10-22T04:35:07;97920.03;;;15.45;76.08
13235;BME280;6683;48.506;9.050;2022-10-22T04:38:11;97916.78;;;15.43;76.26
13235;BME280;6683;48.506;9.050;2022-10-22T04:41:16;97915.09;;;15.42;76.03
13235;BME280;6683;48.506;9.050;2022-10-22T04:44:19;97926.81;;;15.41;76.03
13235;BME280;6683;48.506;9.050;2022-10-22T04:47:21;97926.81;;;15.41;76.03
13235;BME280;6683;48.506;9.050;2022-10-22T04:50:25;97925.16;;;15.40;76.29
13235;BME280;6683;48.506;9.050;2022-10-22T04:53:28;97920.31;;;15.37;76.15
13235;BME280;6683;48.506;9.050;2022-10-22T04:56:31;97917.66;;;15.37;76.39
13235;BME280;6683;48.506;9.050;2022-10-22T04:59:33;97939.50;;;15.39;76.34
13235;BME280;6683;48.506;9.050;2022-10-22T05:02:35;97941.94;;;15.40;76.21
13235;BME280;6683;48.506;9.050;2022-10-22T05:05:39;97950.72;;;15.41;76.33
13235;BME280;6683;48.506;9.050;2022-10-22T05:08:42;97941.94;;;15.40;76.21
13235;BME280;6683;48.506;9.050;2022-10-22T05:11:47;97952.56;;;15.40;76.27
13235;BME280;6683;48.506;9.050;2022-10-22T05:14:50;97958.72;;;15.41;76.18
13235;BME280;6683;48.506;9.050;2022-10-22T05:17:52;97955.22;;;15.40;76.23
13235;BME280;6683;48.506;9.050;2022-10-22T05:20:56;97955.47;;;15.39;76.30
13235;BME280;6683;48.506;9.050;2022-10-22T05:23:58;97962.97;;;15.42;76.34
13235;BME280;6683;48.506;9.050;2022-10-22T05:27:01;97962.81;;;15.43;76.37
13235;BME280;6683;48.506;9.050;2022-10-22T05:30:04;97975.88;;;15.45;76.42
13235;BME280;6683;48.506;9.050;2022-10-22T05:33:07;97976.47;;;15.47;76.43
13235;BME280;6683;48.506;9.050;2022-10-22T05:36:13;97971.97;;;15.47;76.61
13235;BME280;6683;48.506;9.050;2022-10-22T05:39:16;97986.69;;;15.50;76.55
13235;BME280;6683;48.506;9.050;2022-10-22T05:42:19;97984.38;;;15.53;76.38
13235;BME280;6683;48.506;9.050;2022-10-22T05:45:21;97984.16;;;15.55;76.51
13235;BME280;6683;48.506;9.050;2022-10-22T05:48:23;97984.75;;;15.57;76.23
13235;BME280;6683;48.506;9.050;2022-10-22T05:51:28;97988.22;;;15.57;76.44
13235;BME280;6683;48.506;9.050;2022-10-22T05:54:31;98000.47;;;15.58;76.28
13235;BME280;6683;48.506;9.050;2022-10-22T05:57:34;98003.13;;;15.58;76.10
13235;BME280;6683;48.506;9.050;2022-10-22T06:00:36;98003.59;;;15.55;75.88
13235;BME280;6683;48.506;9.050;2022-10-22T06:03:39;97988.88;;;15.53;75.94
13235;BME280;6683;48.506;9.050;2022-10-22T06:06:45;97998.34;;;15.49;76.05
13235;BME280;6683;48.506;9.050;2022-10-22T06:09:48;98008.38;;;15.47;75.99
13235;BME280;6683;48.506;9.050;2022-10-22T06:12:50;98016.59;;;15.45;76.28
13235;BME280;6683;48.506;9.050;2022-10-22T06:15:52;98029.91;;;15.45;76.25
13235;BME280;6683;48.506;9.050;2022-10-22T06:18:56;98032.91;;;15.49;75.91
13235;BME280;6683;48.506;9.050;2022-10-22T06:22:00;98038.25;;;15.49;76.16
13235;BME280;6683;48.506;9.050;2022-10-22T06:25:03;98034.34;;;15.51;76.26
13235;BME280;6683;48.506;9.050;2022-10-22T06:28:06;98041.06;;;15.54;76.13
13235;BME280;6683;48.506;9.050;2022-10-22T06:31:09;98050.66;;;15.55;75.98
13235;BME280;6683;48.506;9.050;2022-10-22T06:34:14;98045.34;;;15.55;76.13
13235;BME280;6683;48.506;9.050;2022-10-22T06:37:20;98056.78;;;15.55;76.13
13235;BME280;6683;48.506;9.050;2022-10-22T06:40:22;98061.06;;;15.56;76.10
13235;BME280;6683;48.506;9.050;2022-10-22T06:43:24;98076.84;;;15.58;76.23
13235;BME280;6683;48.506;9.050;2022-10-22T06:46:27;98073.72;;;15.61;76.44
13235;BME280;6683;48.506;9.050;2022-10-22T06:49:31;98077.78;;;15.63;76.36
13235;BME280;6683;48.506;9.050;2022-10-22T06:52:35;98083.47;;;15.67;76.45
13235;BME280;6683;48.506;9.050;2022-10-22T06:55:37;98088.94;;;15.72;76.43
13235;BME280;6683;48.506;9.050;2022-10-22T06:58:40;98088.53;;;15.75;76.30
13235;BME280;6683;48.506;9.050;2022-10-22T07:01:42;98090.13;;;15.76;76.22
13235;BME280;6683;48.506;9.050;2022-10-22T07:04:45;98090.72;;;15.78;76.20
13235;BME280;6683;48.506;9.050;2022-10-22T07:07:49;98092.56;;;15.77;76.06
13235;BME280;6683;48.506;9.050;2022-10-22T07:10:51;98102.19;;;15.78;75.87
13235;BME280;6683;48.506;9.050;2022-10-22T07:13:55;98099.53;;;15.78;75.88
13235;BME280;6683;48.506;9.050;2022-10-22T07:16:58;98106.47;;;15.79;76.11
13235;BME280;6683;48.506;9.050;2022-10-22T07:20:00;98104.38;;;15.81;76.11
13235;BME280;6683;48.506;9.050;2022-10-22T07:23:04;98101.53;;;15.83;76.09
13235;BME280;6683;48.506;9.050;2022-10-22T07:26:07;98101.06;;;15.86;76.19
13235;BME280;6683;48.506;9.050;2022-10-22T07:29:10;98101.00;;;15.92;76.38
13235;BME280;6683;48.506;9.050;2022-10-22T07:32:15;98104.59;;;15.98;76.20
13235;BME280;6683;48.506;9.050;2022-10-22T07:35:17;98106.19;;;16.06;76.41
13235;BME280;6683;48.506;9.050;2022-10-22T07:38:21;98111.44;;;16.12;76.44
13235;BME280;6683;48.506;9.050;2022-10-22T07:41:25;98118.28;;;16.20;76.46
13235;BME280;6683;48.506;9.050;2022-10-22T07:44:27;98122.72;;;16.26;76.59
13235;BME280;6683;48.506;9.050;2022-10-22T07:47:30;98128.56;;;16.34;76.71
13235;BME280;6683;48.506;9.050;2022-10-22T07:50:32;98136.00;;;16.44;76.67
13235;BME280;6683;48.506;9.050;2022-10-22T07:53:37;98137.34;;;16.53;76.67
13235;BME280;6683;48.506;9.050;2022-10-22T07:56:39;98141.94;;;16.64;76.66
13235;BME280;6683;48.506;9.050;2022-10-22T07:59:41;98147.16;;;16.70;76.35
13235;BME280;6683;48.506;9.050;2022-10-22T08:02:44;98146.03;;;16.78;76.51
13235;BME280;6683;48.506;9.050;2022-10-22T08:05:46;98150.22;;;16.86;76.39
13235;BME280;6683;48.506;9.050;2022-10-22T08:08:50;98146.88;;;16.90;76.12
13235;BME280;6683;48.506;9.050;2022-10-22T08:11:53;98145.59;;;16.93;76.17
13235;BME280;6683;48.506;9.050;2022-10-22T08:14:55;98150.25;;;16.97;75.90
13235;BME280;6683;48.506;9.050;2022-10-22T08:17:57;98148.41;;;16.98;75.83
13235;BME280;6683;48.506;9.050;2022-10-22T08:20:59;98146.78;;;16.97;75.66
13235;BME280;6683;48.506;9.050;2022-10-22T08:24:04;98152.09;;;16.97;75.62
13235;BME280;6683;48.506;9.050;2022-10-22T08:27:06;98148.41;;;16.98;75.92
13235;BME280;6683;48.506;9.050;2022-10-22T08:30:10;98151.88;;;16.98;75.91
13235;BME280;6683;48.506;9.050;2022-10-22T08:33:13;98147.94;;;17.01;75.98
13235;BME280;6683;48.506;9.050;2022-10-22T08:36:15;98144.59;;;17.05;76.01
13235;BME280;6683;48.506;9.050;2022-10-22T08:39:20;98151.34;;;17.08;75.96
13235;BME280;6683;48.506;9.050;2022-10-22T08:42:59;98159.69;;;17.11;76.16
13235;BME280;6683;48.506;9.050;2022-10-22T08:46:27;98160.25;;;17.13;76.23
13235;BME280;6683;48.506;9.050;2022-10-22T08:49:39;98156.69;;;17.19;76.39
13235;BME280;6683;48.506;9.050;2022-10-22T08:52:43;98160.31;;;17.25;76.27
13235;BME280;6683;48.506;9.050;2022-10-22T08:55:52;98158.56;;;17.30;76.41
13235;BME280;6683;48.506;9.050;2022-10-22T08:59:00;98153.38;;;17.58;77.83
13235;BME280;6683;48.506;9.050;2022-10-22T09:02:21;98153.47;;;18.61;79.28
13235;BME280;6683;48.506;9.050;2022-10-22T09:05:38;98153.81;;;19.92;76.75
13235;BME280;6683;48.506;9.050;2022-10-22T09:08:46;98158.72;;;21.35;73.60
13235;BME280;6683;48.506;9.050;2022-10-22T09:11:51;98157.91;;;22.70;71.35
13235;BME280;6683;48.506;9.050;2022-10-22T09:14:55;98154.47;;;23.96;69.32
13235;BME280;6683;48.506;9.050;2022-10-22T09:18:13;98158.53;;;25.21;68.56
13235;BME280;6683;48.506;9.050;2022-10-22T09:21:32;98153.88;;;26.23;67.04
13235;BME280;6683;48.506;9.050;2022-10-22T09:24:43;98141.19;;;27.21;65.48
13235;BME280;6683;48.506;9.050;2022-10-22T09:27:49;98144.41;;;27.88;64.54
13235;BME280;6683;48.506;9.050;2022-10-22T09:30:52;98152.16;;;28.26;64.22
13235;BME280;6683;48.506;9.050;2022-10-22T09:33:54;98150.03;;;28.64;63.59
13235;BME280;6683;48.506;9.050;2022-10-22T09:36:59;98149.63;;;29.20;62.40
13235;BME280;6683;48.506;9.050;2022-10-22T09:40:05;98153.72;;;29.53;61.86
13235;BME280;6683;48.506;9.050;2022-10-22T09:43:12;98160.22;;;29.96;60.85
13235;BME280;6683;48.506;9.050;2022-10-22T09:46:18;98158.50;;;30.40;59.91
13235;BME280;6683;48.506;9.050;2022-10-22T09:49:22;98165.66;;;30.66;59.10
13235;BME280;6683;48.506;9.050;2022-10-22T09:52:27;98169.09;;;31.23;58.04
13235;BME280;6683;48.506;9.050;2022-10-22T09:55:31;98168.25;;;31.91;57.15
13235;BME280;6683;48.506;9.050;2022-10-22T09:58:43;98174.47;;;32.55;55.56
13235;BME280;6683;48.506;9.050;2022-10-22T10:01:46;98177.16;;;32.93;54.42
13235;BME280;6683;48.506;9.050;2022-10-22T10:04:52;98164.22;;;32.52;53.39
13235;BME280;6683;48.506;9.050;2022-10-22T10:07:54;98165.91;;;31.64;54.88
13235;BME280;6683;48.506;9.050;2022-10-22T10:11:01;98177.47;;;31.18;55.49
13235;BME280;6683;48.506;9.050;2022-10-22T10:14:16;98164.44;;;30.90;55.97
13235;BME280;6683;48.506;9.050;2022-10-22T10:17:29;98182.78;;;30.28;55.38
13235;BME280;6683;48.506;9.050;2022-10-22T10:20:39;98177.50;;;29.92;56.90
13235;BME280;6683;48.506;9.050;2022-10-22T10:23:51;98178.38;;;30.40;57.05
13235;BME280;6683;48.506;9.050;2022-10-22T10:27:01;98179.38;;;31.09;56.12
13235;BME280;6683;48.506;9.050;2022-10-22T10:30:13;98185.50;;;31.66;55.14
13235;BME280;6683;48.506;9.050;2022-10-22T10:33:28;98192.72;;;31.62;53.88
13235;BME280;6683;48.506;9.050;2022-10-22T10:36:38;98194.69;;;30.79;54.51
13235;BME280;6683;48.506;9.050;2022-10-22T10:40:10;98201.22;;;30.22;55.42
13235;BME280;6683;48.506;9.050;2022-10-22T10:43:20;98194.84;;;29.60;55.83
13235;BME280;6683;48.506;9.050;2022-10-22T10:46:34;98197.00;;;28.78;57.22
13235;BME280;6683;48.506;9.050;2022-10-22T10:49:42;98197.50;;;28.53;58.49
13235;BME280;6683;48.506;9.050;2022-10-22T10:52:53;98193.88;;;28.30;58.71
13235;BME280;6683;48.506;9.050;2022-10-22T10:56:21;98189.31;;;28.94;59.02
13235;BME280;6683;48.506;9.050;2022-10-22T10:59:44;98188.88;;;29.94;58.23
13235;BME280;6683;48.506;9.050;2022-10-22T11:03:31;98183.72;;;31.02;56.91
13235;BME280;6683;48.506;9.050;2022-10-22T11:06:37;98189.47;;;31.94;56.49
13235;BME280;6683;48.506;9.050;2022-10-22T11:09:45;98176.78;;;32.36;53.89
13235;BME280;6683;48.506;9.050;2022-10-22T11:12:53;98178.72;;;31.89;54.10
13235;BME280;6683;48.506;9.050;2022-10-22T11:16:03;98173.75;;;31.83;54.39
13235;BME280;6683;48.506;9.050;2022-10-22T11:19:17;98180.13;;;32.04;54.20
13235;BME280;6683;48.506;9.050;2022-10-22T11:22:25;98175.50;;;32.33;53.74
13235;BME280;6683;48.506;9.050;2022-10-22T11:25:33;98179.13;;;32.84;53.20
13235;BME280;6683;48.506;9.050;2022-10-22T11:28:44;98183.34;;;33.31;52.15
13235;BME280;6683;48.506;9.050;2022-10-22T11:31:49;98172.53;;;33.55;51.62
13235;BME280;6683;48.506;9.050;2022-10-22T11:34:58;98173.25;;;34.09;50.37
13235;BME280;6683;48.506;9.050;2022-10-22T11:38:04;98180.13;;;34.15;49.24
13235;BME280;6683;48.506;9.050;2022-10-22T11:41:12;98173.03;;;34.02;48.80
13235;BME280;6683;48.506;9.050;2022-10-22T11:44:21;98165.19;;;34.25;48.11
13235;BME280;6683;48.506;9.050;2022-10-22T11:47:28;98168.84;;;34.17;48.14
13235;BME280;6683;48.506;9.050;2022-10-22T11:50:48;98164.38;;;34.12;47.11
13235;BME280;6683;48.506;9.050;2022-10-22T11:53:56;98155.16;;;34.29;46.11
13235;BME280;6683;48.506;9.050;2022-10-22T11:57:19;98156.38;;;33.74;46.00
13235;BME280;6683;48.506;9.050;2022-10-22T12:00:34;98157.63;;;32.45;47.24
13235;BME280;6683;48.506;9.050;2022-10-22T12:03:43;98153.34;;;31.80;48.46
13235;BME280;6683;48.506;9.050;2022-10-22T12:06:58;98153.19;;;32.31;47.98
13235;BME280;6683;48.506;9.050;2022-10-22T12:10:10;98153.28;;;32.81;47.38
13235;BME280;6683;48.506;9.050;2022-10-22T12:13:23;98152.97;;;33.03;46.92
13235;BME280;6683;48.506;9.050;2022-10-22T12:16:27;98154.72;;;33.29;46.78
13235;BME280;6683;48.506;9.050;2022-10-22T12:19:34;98152.22;;;33.56;46.39
13235;BME280;6683;48.506;9.050;2022-10-22T12:22:39;98150.16;;;33.53;45.93
13235;BME280;6683;48.506;9.050;2022-10-22T12:25:42;98146.91;;;32.98;46.68
13235;BME280;6683;48.506;9.050;2022-10-22T12:28:44;98141.13;;;31.95;47.49
13235;BME280;6683;48.506;9.050;2022-10-22T12:31:47;98144.19;;;30.82;48.53
13235;BME280;6683;48.506;9.050;2022-10-22T12:34:51;98138.84;;;29.81;50.11
13235;BME280;6683;48.506;9.050;2022-10-22T12:37:57;98138.09;;;28.87;51.31
13235;BME280;6683;48.506;9.050;2022-10-22T12:41:01;98137.34;;;28.05;52.47
13235;BME280;6683;48.506;9.050;2022-10-22T12:44:05;98138.16;;;27.41;53.92
13235;BME280;6683;48.506;9.050;2022-10-22T12:47:13;98135.50;;;26.85;54.49
13235;BME280;6683;48.506;9.050;2022-10-22T12:50:19;98142.81;;;26.43;55.81
13235;BME280;6683;48.506;9.050;2022-10-22T12:53:28;98149.47;;;26.03;56.68
13235;BME280;6683;48.506;9.050;2022-10-22T12:56:33;98137.09;;;25.68;57.15
13235;BME280;6683;48.506;9.050;2022-10-22T12:59:38;98131.13;;;25.37;57.57
13235;BME280;6683;48.506;9.050;2022-10-22T13:02:42;98140.25;;;25.08;58.36
13235;BME280;6683;48.506;9.050;2022-10-22T13:05:47;98142.06;;;24.84;59.53
13235;BME280;6683;48.506;9.050;2022-10-22T13:09:14;98138.34;;;24.65;60.59
13235;BME280;6683;48.506;9.050;2022-10-22T13:12:24;98132.19;;;24.54;60.78
13235;BME280;6683;48.506;9.050;2022-10-22T13:15:36;98126.59;;;24.40;60.86
13235;BME280;6683;48.506;9.050;2022-10-22T13:18:39;98134.16;;;24.33;60.85
13235;BME280;6683;48.506;9.050;2022-10-22T13:21:48;98130.16;;;24.21;61.06
13235;BME280;6683;48.506;9.050;2022-10-22T13:24:52;98128.31;;;24.11;61.04
13235;BME280;6683;48.506;9.050;2022-10-22T13:27:58;98131.00;;;24.01;61.42
13235;BME280;6683;48.506;9.050;2022-10-22T13:31:10;98134.53;;;23.92;61.55
13235;BME280;6683;48.506;9.050;2022-10-22T13:34:18;98129.44;;;23.85;61.63
13235;BME280;6683;48.506;9.050;2022-10-22T13:37:21;98130.53;;;23.79;61.51
13235;BME280;6683;48.506;9.050;2022-10-22T13:40:26;98133.78;;;23.71;61.96
13235;BME280;6683;48.506;9.050;2022-10-22T13:43:29;98136.22;;;23.67;61.64
13235;BME280;6683;48.506;9.050;2022-10-22T13:46:31;98131.63;;;23.63;61.34
13235;BME280;6683;48.506;9.050;2022-10-22T13:49:40;98127.88;;;23.59;61.82
13235;BME280;6683;48.506;9.050;2022-10-22T13:52:46;98125.72;;;23.51;61.88
13235;BME280;6683;48.506;9.050;2022-10-22T13:55:51;98124.09;;;23.45;61.75
13235;BME280;6683;48.506;9.050;2022-10-22T13:58:54;98121.66;;;23.43;61.84
13235;BME280;6683;48.506;9.050;2022-10-22T14:01:56;98122.22;;;23.40;61.97
13235;BME280;6683;48.506;9.050;2022-10-22T14:05:02;98130.03;;;23.37;61.85
13235;BME280;6683;48.506;9.050;2022-10-22T14:08:10;98135.41;;;23.32;61.94
13235;BME280;6683;48.506;9.050;2022-10-22T14:11:15;98128.66;;;23.29;61.96
13235;BME280;6683;48.506;9.050;2022-10-22T14:14:17;98125.16;;;23.29;61.74
13235;BME280;6683;48.506;9.050;2022-10-22T14:17:20;98125.69;;;23.26;61.65
13235;BME280;6683;48.506;9.050;2022-10-22T14:20:25;98120.31;;;23.21;61.83
13235;BME280;6683;48.506;9.050;2022-10-22T14:23:30;98125.16;;;23.19;61.58
13235;BME280;6683;48.506;9.050;2022-10-22T14:26:34;98122.72;;;23.12;61.66
13235;BME280;6683;48.506;9.050;2022-10-22T14:29:37;98123.78;;;23.06;61.55
13235;BME280;6683;48.506;9.050;2022-10-22T14:32:40;98122.44;;;23.03;61.74
13235;BME280;6683;48.506;9.050;2022-10-22T14:35:43;98128.63;;;22.99;61.57
13235;BME280;6683;48.506;9.050;2022-10-22T14:38:46;98131.59;;;22.97;61.80
13235;BME280;6683;48.506;9.050;2022-10-22T14:41:50;98135.91;;;22.93;61.77
13235;BME280;6683;48.506;9.050;2022-10-22T14:44:53;98134.53;;;22.91;61.59
13235;BME280;6683;48.506;9.050;2022-10-22T14:47:55;98131.84;;;22.86;61.58
13235;BME280;6683;48.506;9.050;2022-10-22T14:50:58;98131.84;;;22.81;61.81
13235;BME280;6683;48.506;9.050;2022-10-22T14:54:00;98128.84;;;22.72;61.45
13235;BME280;6683;48.506;9.050;2022-10-22T14:57:04;98138.81;;;22.67;61.61
13235;BME280;6683;48.506;9.050;2022-10-22T15:00:12;98141.75;;;22.60;61.66
13235;BME280;6683;48.506;9.050;2022-10-22T15:03:14;98134.69;;;22.54;61.41
13235;BME280;6683;48.506;9.050;2022-10-22T15:06:17;98142.72;;;22.49;61.87
13235;BME280;6683;48.506;9.050;2022-10-22T15:09:19;98137.09;;;22.46;61.89
13235;BME280;6683;48.506;9.050;2022-10-22T15:12:23;98141.88;;;22.39;61.44
13235;BME280;6683;48.506;9.050;2022-10-22T15:15:25;98137.56;;;22.33;61.70
13235;BME280;6683;48.506;9.050;2022-10-22T15:18:28;98144.00;;;22.26;61.44
13235;BME280;6683;48.506;9.050;2022-10-22T15:21:30;98148.25;;;22.17;61.82
13235;BME280;6683;48.506;9.050;2022-10-22T15:24:32;98147.41;;;22.07;61.79
13235;BME280;6683;48.506;9.050;2022-10-22T15:27:36;98151.66;;;21.98;62.22
13235;BME280;6683;48.506;9.050;2022-10-22T15:30:38;98147.00;;;21.88;62.13
13235;BME280;6683;48.506;9.050;2022-10-22T15:33:41;98152.06;;;21.80;62.06
13235;BME280;6683;48.506;9.050;2022-10-22T15:36:44;98143.66;;;21.71;62.25
13235;BME280;6683;48.506;9.050;2022-10-22T15:39:47;98145.22;;;21.62;62.64
13235;BME280;6683;48.506;9.050;2022-10-22T15:42:50;98147.00;;;21.52;62.43
13235;BME280;6683;48.506;9.050;2022-10-22T15:46:08;98146.94;;;21.41;63.24
13235;BME280;6683;48.506;9.050;2022-10-22T15:49:12;98148.47;;;21.32;63.49
13235;BME280;6683;48.506;9.050;2022-10-22T15:52:14;98150.25;;;21.22;63.44
13235;BME280;6683;48.506;9.050;2022-10-22T15:55:17;98159.31;;;21.11;63.66
13235;BME280;6683;48.506;9.050;2022-10-22T15:58:21;98160.78;;;21.02;63.77
13235;BME280;6683;48.506;9.050;2022-10-22T16:01:25;98162.81;;;20.90;63.72
13235;BME280;6683;48.506;9.050;2022-10-22T16:04:28;98166.72;;;20.77;63.65
13235;BME280;6683;48.506;9.050;2022-10-22T16:07:30;98174.31;;;20.63;63.45
13235;BME280;6683;48.506;9.050;2022-10-22T16:10:33;98173.34;;;20.48;63.67
13235;BME280;6683;48.506;9.050;2022-10-22T16:13:37;98165.94;;;20.33;63.95
13235;BME280;6683;48.506;9.050;2022-10-22T16:16:44;98173.72;;;20.18;64.06
13235;BME280;6683;48.506;9.050;2022-10-22T16:19:47;98173.31;;;20.05;64.26
13235;BME280;6683;48.506;9.050;2022-10-22T16:22:49;98175.25;;;19.92;64.72
13235;BME280;6683;48.506;9.050;2022-10-22T16:25:51;98175.28;;;19.76;64.51
13235;BME280;6683;48.506;9.050;2022-10-22T16:28:56;98172.84;;;19.58;64.74
13235;BME280;6683;48.506;9.050;2022-10-22T16:31:59;98179.03;;;19.42;64.72
13235;BME280;6683;48.506;9.050;2022-10-22T16:35:01;98174.44;;;19.26;64.93
13235;BME280;6683;48.506;9.050;2022-10-22T16:38:04;98190.00;;;19.12;65.29